createdAt,value
2019-02-14T00:02:13.374Z,6.27
2019-02-14T00:07:57.510Z,5.57
2019-02-14T00:13:42.046Z,7.17
2019-02-14T00:16:10.475Z,6.30
2019-02-14T00:18:38.714Z,4.77
2019-02-14T00:24:23.578Z,5.47
2019-02-14T00:26:51.933Z,6.23
2019-02-14T00:29:20.219Z,5.27
2019-02-14T00:31:48.709Z,6.27
2019-02-14T00:34:17.050Z,6.33
2019-02-14T00:40:00.778Z,4.83
2019-02-14T00:42:29.198Z,4.63
2019-02-14T00:44:57.441Z,5.70
2019-02-14T00:47:25.699Z,6.37
2019-02-14T00:49:54.086Z,5.97
2019-02-14T00:52:22.401Z,6.13
2019-02-14T00:54:50.789Z,7.93
2019-02-14T00:57:19.009Z,6.80
2019-02-14T00:59:47.258Z,5.60
2019-02-14T01:02:15.567Z,7.30
2019-02-14T01:04:43.866Z,6.80
2019-02-14T01:07:12.419Z,5.70
2019-02-14T01:09:40.681Z,6.67
2019-02-14T01:12:09.578Z,7.87
2019-02-14T01:14:37.947Z,7.30
2019-02-14T01:17:06.326Z,5.23
2019-02-14T01:19:34.586Z,6.90
2019-02-14T01:22:02.966Z,6.60
2019-02-14T01:24:31.178Z,5.70
2019-02-14T01:26:59.501Z,6.63
2019-02-14T01:29:27.786Z,6.30
2019-02-14T01:31:55.996Z,4.40
2019-02-14T01:34:24.144Z,6.37
2019-02-14T01:36:52.406Z,5.13
2019-02-14T01:39:20.666Z,7.13
2019-02-14T01:41:49.118Z,4.93
2019-02-14T01:44:17.426Z,5.57
2019-02-14T01:50:03.538Z,5.50
2019-02-14T01:52:31.887Z,6.23
2019-02-14T01:55:00.272Z,7.37
2019-02-14T01:57:28.703Z,5.83
2019-02-14T01:59:56.987Z,4.47
2019-02-14T02:02:25.257Z,5.10
2019-02-14T02:04:53.656Z,6.43
2019-02-14T02:07:21.987Z,5.53
2019-02-14T02:09:50.338Z,5.07
2019-02-14T02:12:18.657Z,7.00
2019-02-14T02:14:47.038Z,6.67
2019-02-14T02:17:15.258Z,4.37
2019-02-14T02:19:43.726Z,6.07
2019-02-14T02:22:12.214Z,6.33
2019-02-14T02:24:40.706Z,5.77
2019-02-14T02:27:10.114Z,5.00
2019-02-14T02:29:38.326Z,6.10
2019-02-14T02:32:06.733Z,5.10
2019-02-14T02:34:34.962Z,6.10
2019-02-14T02:37:03.516Z,8.27
2019-02-14T02:39:31.838Z,5.50
2019-02-14T02:42:00.170Z,5.30
2019-02-14T02:44:28.459Z,8.17
2019-02-14T02:46:56.629Z,6.87
2019-02-14T02:49:25.046Z,6.17
2019-02-14T02:51:53.395Z,5.67
2019-02-14T02:54:21.602Z,5.77
2019-02-14T02:56:50.058Z,7.07
2019-02-14T02:59:18.381Z,5.13
2019-02-14T03:01:46.778Z,4.97
2019-02-14T03:04:15.191Z,5.07
2019-02-14T03:06:43.587Z,5.73
2019-02-14T03:09:12.036Z,7.10
2019-02-14T03:11:40.458Z,5.27
2019-02-14T03:14:08.900Z,5.90
2019-02-14T03:16:38.287Z,4.60
2019-02-14T03:19:06.608Z,4.57
2019-02-14T03:21:34.926Z,5.00
2019-02-14T03:24:03.339Z,5.53
2019-02-14T03:26:31.781Z,4.43
2019-02-14T03:29:00.056Z,5.30
2019-02-14T03:34:44.946Z,5.70
2019-02-14T03:40:17.259Z,4.03
2019-02-14T03:46:02.388Z,3.60
2019-02-14T03:48:30.659Z,4.30
2019-02-14T03:54:15.826Z,5.33
2019-02-14T03:56:44.063Z,4.57
2019-02-14T03:59:12.338Z,7.03
2019-02-14T04:04:55.906Z,5.60
2019-02-14T04:07:24.353Z,4.70
2019-02-14T04:09:52.635Z,3.67
2019-02-14T04:12:20.979Z,4.87
2019-02-14T04:14:49.300Z,5.40
2019-02-14T04:17:17.498Z,3.20
2019-02-14T04:23:00.918Z,4.30
2019-02-14T04:28:56.280Z,5.17
2019-02-14T04:31:24.507Z,4.40
2019-02-14T04:33:52.894Z,6.20
2019-02-14T04:39:37.098Z,6.30
2019-02-14T04:45:10.698Z,4.33
2019-02-14T04:50:55.186Z,3.57
2019-02-14T04:56:39.002Z,3.53
2019-02-14T05:02:23.036Z,4.93
2019-02-14T05:07:56.287Z,6.03
2019-02-14T05:13:40.968Z,5.30
2019-02-14T05:19:25.431Z,6.57
2019-02-14T05:21:53.919Z,6.70
2019-02-14T05:24:22.037Z,6.57
2019-02-14T05:26:50.479Z,5.90
2019-02-14T05:29:18.910Z,6.57
2019-02-14T05:31:47.166Z,5.43
2019-02-14T05:34:15.469Z,4.47
2019-02-14T05:36:43.842Z,7.50
2019-02-14T05:39:12.172Z,5.57
2019-02-14T05:41:40.518Z,6.83
2019-02-14T05:44:08.925Z,4.97
2019-02-14T05:46:37.408Z,5.03
2019-02-14T05:49:05.698Z,6.63
2019-02-14T05:51:34.078Z,4.23
2019-02-14T05:54:02.438Z,5.87
2019-02-14T05:56:30.852Z,6.03
2019-02-14T05:58:59.202Z,5.53
2019-02-14T06:01:27.701Z,4.37
2019-02-14T06:03:56.138Z,5.47
2019-02-14T06:06:24.449Z,4.60
2019-02-14T06:08:52.699Z,5.03
2019-02-14T06:11:21.108Z,5.40
2019-02-14T06:13:49.442Z,5.57
2019-02-14T06:16:17.701Z,5.37
2019-02-14T06:18:46.008Z,4.03
2019-02-14T06:21:14.495Z,5.70
2019-02-14T06:23:42.726Z,4.43
2019-02-14T06:26:11.174Z,5.10
2019-02-14T06:28:39.485Z,5.10
2019-02-14T06:31:07.709Z,4.83
2019-02-14T06:33:35.979Z,4.90
2019-02-14T06:36:04.318Z,5.53
2019-02-14T06:38:32.712Z,5.77
2019-02-14T06:41:00.906Z,6.03
2019-02-14T06:43:29.259Z,5.80
2019-02-14T06:45:57.668Z,4.20
2019-02-14T06:48:25.948Z,5.13
2019-02-14T06:50:54.375Z,3.30
2019-02-14T06:53:22.611Z,5.30
2019-02-14T06:55:50.911Z,3.93
2019-02-14T06:58:19.289Z,4.00
2019-02-14T07:00:47.704Z,4.00
2019-02-14T07:03:16.003Z,5.43
2019-02-14T07:05:44.334Z,5.43
2019-02-14T07:08:12.931Z,4.40
2019-02-14T07:10:41.488Z,5.10
2019-02-14T07:13:09.902Z,4.20
2019-02-14T07:15:38.531Z,5.23
2019-02-14T07:18:06.886Z,5.13
2019-02-14T07:20:35.222Z,4.93
2019-02-14T07:23:03.530Z,5.33
2019-02-14T07:25:31.848Z,5.67
2019-02-14T07:28:00.356Z,5.10
2019-02-14T07:30:28.746Z,6.20
2019-02-14T07:32:57.435Z,4.63
2019-02-14T07:35:25.768Z,4.97
2019-02-14T07:37:54.101Z,6.80
2019-02-14T07:40:22.466Z,5.67
2019-02-14T07:42:50.860Z,5.73
2019-02-14T07:45:19.386Z,6.37
2019-02-14T07:47:48.752Z,6.43
2019-02-14T07:50:17.083Z,8.30
2019-02-14T07:52:45.427Z,7.87
2019-02-14T07:55:14.052Z,7.00
2019-02-14T07:57:42.583Z,8.17
2019-02-14T08:00:12.368Z,8.23
2019-02-14T08:02:40.746Z,9.67
2019-02-14T08:05:09.543Z,7.13
2019-02-14T08:07:37.811Z,6.80
2019-02-14T08:10:07.725Z,8.10
2019-02-14T08:12:36.046Z,6.90
2019-02-14T08:15:05.649Z,5.20
2019-02-14T08:17:33.979Z,7.07
2019-02-14T08:20:02.266Z,7.03
2019-02-14T08:22:30.607Z,6.20
2019-02-14T08:24:58.751Z,5.20
2019-02-14T08:27:29.074Z,5.00
2019-02-14T08:29:57.430Z,5.07
2019-02-14T08:32:25.798Z,4.37
2019-02-14T08:34:54.197Z,4.10
2019-02-14T08:37:22.501Z,6.17
2019-02-14T08:39:50.836Z,3.77
2019-02-14T08:42:19.034Z,5.00
2019-02-14T08:44:47.180Z,4.13
2019-02-14T08:47:15.356Z,4.10
2019-02-14T08:49:43.547Z,4.97
2019-02-14T08:52:12.035Z,5.77
2019-02-14T08:54:41.637Z,4.97
2019-02-14T08:57:09.906Z,4.67
2019-02-14T08:59:38.298Z,4.63
2019-02-14T09:02:06.794Z,5.13
2019-02-14T09:04:35.167Z,5.03
2019-02-14T09:07:03.414Z,4.50
2019-02-14T09:09:31.802Z,4.30
2019-02-14T09:11:59.979Z,4.50
2019-02-14T09:14:28.384Z,5.07
2019-02-14T09:16:57.474Z,3.53
2019-02-14T09:19:25.925Z,3.83
2019-02-14T09:21:54.185Z,3.90
2019-02-14T09:24:22.420Z,3.90
2019-02-14T09:26:50.814Z,4.67
2019-02-14T09:29:19.139Z,4.73
2019-02-14T09:31:47.453Z,4.30
2019-02-14T09:34:15.694Z,4.00
2019-02-14T09:36:44.079Z,4.30
2019-02-14T09:39:12.674Z,4.40
2019-02-14T09:41:40.937Z,3.77
2019-02-14T09:44:09.285Z,5.70
2019-02-14T09:46:37.646Z,3.70
2019-02-14T09:49:05.891Z,5.10
2019-02-14T09:51:34.153Z,4.13
2019-02-14T09:54:02.634Z,3.00
2019-02-14T09:56:30.906Z,4.87
2019-02-14T09:58:59.259Z,5.43
2019-02-14T10:01:27.743Z,3.73
2019-02-14T10:03:56.092Z,4.20
2019-02-14T10:06:24.418Z,5.13
2019-02-14T10:08:52.819Z,4.30
2019-02-14T10:11:21.142Z,3.77
2019-02-14T10:13:49.514Z,3.90
2019-02-14T10:16:17.836Z,5.30
2019-02-14T10:18:46.434Z,4.40
2019-02-14T10:21:14.699Z,5.63
2019-02-14T10:23:42.976Z,4.37
2019-02-14T10:26:11.474Z,4.80
2019-02-14T10:28:39.689Z,4.10
2019-02-14T10:31:08.020Z,5.10
2019-02-14T10:33:36.614Z,5.20
2019-02-14T10:36:06.149Z,4.83
2019-02-14T10:38:34.594Z,4.87
2019-02-14T10:41:03.018Z,5.83
2019-02-14T10:43:31.487Z,4.17
2019-02-14T10:45:59.702Z,5.57
2019-02-14T10:48:28.101Z,5.07
2019-02-14T10:50:56.594Z,4.27
2019-02-14T10:53:24.941Z,3.23
2019-02-14T10:55:53.448Z,5.17
2019-02-14T10:58:21.834Z,5.23
2019-02-14T11:00:50.111Z,4.37
2019-02-14T11:03:18.386Z,4.17
2019-02-14T11:05:46.775Z,4.20
2019-02-14T11:08:15.248Z,3.17
2019-02-14T11:10:44.939Z,4.90
2019-02-14T11:13:13.286Z,3.93
2019-02-14T11:15:41.798Z,4.83
2019-02-14T11:18:10.194Z,5.50
2019-02-14T11:20:38.466Z,3.87
2019-02-14T11:23:07.001Z,3.67
2019-02-14T11:25:36.176Z,5.47
2019-02-14T11:28:04.511Z,5.30
2019-02-14T11:30:32.906Z,3.80
2019-02-14T11:33:01.253Z,3.97
2019-02-14T11:35:29.524Z,3.60
2019-02-14T11:37:57.954Z,4.87
2019-02-14T11:40:26.351Z,3.73
2019-02-14T11:42:54.703Z,3.70
2019-02-14T11:45:23.715Z,5.23
2019-02-14T11:47:52.022Z,3.70
2019-02-14T11:50:20.342Z,4.70
2019-02-14T11:52:52.236Z,4.93
2019-02-14T11:55:20.857Z,4.33
2019-02-14T11:57:49.175Z,5.07
2019-02-14T12:00:20.301Z,4.40
2019-02-14T12:02:54.994Z,4.50
2019-02-14T12:05:18.661Z,4.83
2019-02-14T12:07:47.207Z,5.90
2019-02-14T12:10:15.478Z,4.73
2019-02-14T12:12:43.653Z,6.93
2019-02-14T12:15:12.870Z,6.53
2019-02-14T12:17:41.360Z,5.33
2019-02-14T12:20:12.511Z,5.23
2019-02-14T12:22:46.622Z,5.90
2019-02-14T12:25:12.239Z,5.10
2019-02-14T12:27:40.754Z,5.17
2019-02-14T12:30:10.829Z,6.00
2019-02-14T12:32:39.314Z,5.13
2019-02-14T12:35:07.708Z,4.60
2019-02-14T12:37:36.104Z,4.60
2019-02-14T12:40:05.759Z,4.27
2019-02-14T12:42:34.142Z,5.70
2019-02-14T12:45:02.506Z,3.97
2019-02-14T12:47:31.062Z,5.83
2019-02-14T12:49:59.307Z,3.70
2019-02-14T12:52:27.627Z,3.50
2019-02-14T12:54:55.947Z,4.93
2019-02-14T12:57:24.267Z,4.03
2019-02-14T12:59:52.598Z,4.53
2019-02-14T13:02:20.895Z,3.60
2019-02-14T13:04:49.116Z,4.27
2019-02-14T13:07:17.434Z,3.97
2019-02-14T13:09:45.979Z,5.10
2019-02-14T13:12:14.514Z,4.73
2019-02-14T13:14:42.914Z,4.60
2019-02-14T13:17:11.323Z,3.93
2019-02-14T13:19:39.654Z,3.63
2019-02-14T13:22:07.957Z,4.90
2019-02-14T13:24:36.266Z,4.40
2019-02-14T13:27:04.546Z,3.20
2019-02-14T13:29:34.075Z,4.30
2019-02-14T13:32:02.592Z,3.50
2019-02-14T13:34:31.065Z,4.43
2019-02-14T13:37:01.802Z,3.67
2019-02-14T13:39:31.914Z,6.03
2019-02-14T13:42:01.343Z,5.20
2019-02-14T13:44:30.069Z,4.50
2019-02-14T13:46:58.300Z,5.03
2019-02-14T13:49:26.537Z,4.93
2019-02-14T13:51:54.843Z,5.83
2019-02-14T13:54:23.180Z,5.33
2019-02-14T13:56:54.177Z,4.97
2019-02-14T13:59:21.694Z,5.83
2019-02-14T14:01:50.074Z,4.83
2019-02-14T14:04:18.287Z,5.50
2019-02-14T14:06:46.734Z,5.87
2019-02-14T14:09:14.859Z,5.50
2019-02-14T14:11:43.132Z,5.70
2019-02-14T14:14:11.456Z,5.50
2019-02-14T14:16:39.826Z,6.07
2019-02-14T14:19:08.242Z,4.37
2019-02-14T14:21:36.546Z,6.60
2019-02-14T14:24:05.194Z,7.27
2019-02-14T14:26:33.495Z,7.17
2019-02-14T14:29:01.822Z,6.80
2019-02-14T14:31:30.331Z,7.60
2019-02-14T14:33:58.815Z,6.20
2019-02-14T14:36:27.186Z,7.03
2019-02-14T14:38:55.579Z,9.53
2019-02-14T14:41:23.920Z,9.30
2019-02-14T14:43:53.938Z,7.00
2019-02-14T14:46:23.895Z,7.63
2019-02-14T14:52:07.956Z,8.83
2019-02-14T14:57:53.540Z,6.97
2019-02-14T15:03:37.069Z,9.07
2019-02-14T15:06:05.480Z,7.20
2019-02-14T15:08:33.874Z,9.13
2019-02-14T15:14:05.786Z,7.50
2019-02-14T15:19:49.839Z,9.30
2019-02-14T15:22:18.301Z,8.90
2019-02-14T15:28:03.283Z,9.57
2019-02-14T15:33:47.899Z,9.23
2019-02-14T15:39:20.343Z,11.07
2019-02-14T15:45:06.336Z,9.37
2019-02-14T15:47:34.696Z,8.00
2019-02-14T15:50:05.882Z,9.40
2019-02-14T15:52:33.723Z,8.80
2019-02-14T15:55:01.987Z,10.10
2019-02-14T16:00:58.385Z,8.67
2019-02-14T16:03:26.795Z,11.93
2019-02-14T16:05:55.169Z,11.87
2019-02-14T16:08:23.932Z,10.30
2019-02-14T16:10:55.600Z,10.97
2019-02-14T16:13:22.456Z,14.10
2019-02-14T16:15:50.828Z,12.87
2019-02-14T16:18:20.612Z,13.70
2019-02-14T16:20:49.117Z,10.40
2019-02-14T16:23:17.519Z,10.20
2019-02-14T16:25:45.846Z,13.50
2019-02-14T16:28:16.815Z,9.87
2019-02-14T16:30:45.196Z,10.80
2019-02-14T16:33:13.634Z,14.07
2019-02-14T16:35:42.084Z,15.47
2019-02-14T16:38:11.842Z,11.77
2019-02-14T16:40:40.587Z,13.83
2019-02-14T16:43:08.938Z,11.87
2019-02-14T16:45:37.355Z,20.43
2019-02-14T16:48:05.816Z,12.47
2019-02-14T16:50:34.321Z,17.17
2019-02-14T16:53:02.658Z,12.50
2019-02-14T16:55:31.156Z,13.57
2019-02-14T16:57:59.636Z,15.10
2019-02-14T17:00:28.856Z,17.80
2019-02-14T17:02:57.285Z,17.23
2019-02-14T17:05:25.759Z,17.90
2019-02-14T17:07:56.014Z,20.47
2019-02-14T17:10:24.196Z,17.53
2019-02-14T17:12:52.527Z,21.87
2019-02-14T17:15:20.961Z,20.30
2019-02-14T17:17:49.449Z,21.93
2019-02-14T17:20:17.900Z,16.80
2019-02-14T17:22:46.190Z,15.77
2019-02-14T17:25:14.461Z,18.30
2019-02-14T17:27:42.955Z,19.13
2019-02-14T17:30:11.362Z,19.77
2019-02-14T17:32:39.719Z,12.93
2019-02-14T17:35:08.021Z,15.93
2019-02-14T17:37:36.370Z,13.63
2019-02-14T17:40:06.224Z,16.53
2019-02-14T17:42:34.770Z,17.13
2019-02-14T17:45:03.165Z,26.23
2019-02-14T17:47:31.527Z,19.97
2019-02-14T17:49:59.828Z,23.67
2019-02-14T17:52:28.167Z,20.87
2019-02-14T17:54:56.675Z,18.90
2019-02-14T17:57:25.095Z,26.07
2019-02-14T17:59:53.426Z,19.83
2019-02-14T18:02:21.711Z,18.23
2019-02-14T18:04:50.179Z,16.33
2019-02-14T18:07:18.578Z,15.30
2019-02-14T18:09:46.916Z,19.27
2019-02-14T18:12:15.293Z,17.03
2019-02-14T18:14:43.807Z,16.30
2019-02-14T18:17:12.355Z,16.00
2019-02-14T18:19:40.774Z,13.30
2019-02-14T18:22:09.142Z,13.73
2019-02-14T18:24:37.617Z,14.10
2019-02-14T18:27:06.003Z,15.50
2019-02-14T18:29:34.256Z,20.13
2019-02-14T18:32:02.540Z,17.20
2019-02-14T18:34:30.936Z,16.97
2019-02-14T18:36:59.172Z,15.00
2019-02-14T18:39:27.589Z,16.10
2019-02-14T18:41:56.132Z,15.23
2019-02-14T18:44:24.476Z,15.03
2019-02-14T18:46:52.898Z,17.17
2019-02-14T18:49:21.330Z,14.87
2019-02-14T18:51:49.630Z,13.37
2019-02-14T18:57:33.335Z,15.73
2019-02-14T19:03:18.302Z,15.00
2019-02-14T19:05:46.728Z,14.80
2019-02-14T19:08:15.098Z,15.10
2019-02-14T19:10:43.578Z,14.60
2019-02-14T19:13:12.064Z,16.17
2019-02-14T19:15:40.545Z,13.70
2019-02-14T19:18:08.928Z,12.13
2019-02-14T19:23:53.198Z,15.30
2019-02-14T19:26:21.583Z,13.97
2019-02-14T19:28:54.266Z,16.70
2019-02-14T19:31:24.135Z,15.00
2019-02-14T19:33:52.556Z,18.03
2019-02-14T19:36:21.074Z,16.10
2019-02-14T19:41:53.638Z,15.30
2019-02-14T19:44:22.037Z,18.27
2019-02-14T19:46:50.435Z,16.07
2019-02-14T19:49:19.980Z,11.83
2019-02-14T19:55:06.632Z,15.67
2019-02-14T19:57:35.000Z,17.70
2019-02-14T20:00:23.962Z,21.10
2019-02-14T20:02:55.676Z,23.80
2019-02-14T20:05:24.109Z,16.37
2019-02-14T20:07:52.520Z,15.13
2019-02-14T20:13:25.202Z,15.57
2019-02-14T20:15:53.610Z,16.53
2019-02-14T20:18:22.157Z,15.23
2019-02-14T20:20:50.542Z,16.37
2019-02-14T20:23:18.895Z,13.63
2019-02-14T20:25:47.159Z,18.00
2019-02-14T20:28:15.358Z,18.57
2019-02-14T20:30:43.776Z,22.13
2019-02-14T20:33:12.119Z,17.13
2019-02-14T20:35:40.929Z,14.80
2019-02-14T20:38:09.320Z,15.80
2019-02-14T20:40:38.763Z,19.17
2019-02-14T20:46:16.413Z,14.30
2019-02-14T20:49:27.254Z,15.33
2019-02-14T20:51:54.748Z,13.20
2019-02-14T20:54:23.132Z,13.13
2019-02-14T20:56:51.486Z,18.30
2019-02-14T20:59:19.926Z,16.97
2019-02-14T21:05:07.432Z,16.90
2019-02-14T21:07:38.876Z,19.67
2019-02-14T21:13:22.645Z,19.90
2019-02-14T21:15:52.471Z,16.63
2019-02-14T21:21:36.911Z,13.07
2019-02-14T21:30:36.176Z,18.03
2019-02-14T21:36:35.385Z,20.20
2019-02-14T21:42:27.554Z,21.90
2019-02-14T21:48:20.066Z,22.23
2019-02-14T21:54:09.836Z,21.50
2019-02-14T21:56:40.412Z,20.37
2019-02-14T22:02:25.670Z,18.90
2019-02-14T22:04:56.691Z,17.53
2019-02-14T22:10:32.306Z,16.37
2019-02-14T22:16:18.977Z,18.20
2019-02-14T22:18:52.159Z,18.87
2019-02-14T22:24:31.084Z,17.00
2019-02-14T22:30:25.891Z,20.90
2019-02-14T22:36:19.335Z,21.70
2019-02-14T22:42:21.288Z,21.97
2019-02-14T22:44:53.484Z,21.83
2019-02-14T22:50:29.189Z,24.43
2019-02-14T22:53:00.095Z,24.10
2019-02-14T22:58:52.271Z,23.70
2019-02-14T23:04:39.081Z,21.77
2019-02-14T23:10:27.766Z,18.87
2019-02-14T23:16:15.559Z,27.87
2019-02-14T23:18:49.381Z,26.83
2019-02-14T23:24:35.075Z,26.13
2019-02-14T23:30:21.058Z,24.60
2019-02-14T23:36:05.917Z,26.53
2019-02-14T23:41:50.204Z,15.23
2019-02-14T23:47:41.457Z,26.53
2019-02-14T23:50:11.690Z,28.07
2019-02-14T23:56:12.452Z,27.87
2019-02-14T23:58:46.947Z,26.77
